Airfield :







YOU CAN JOIN US ON...

 
LOGIN :

Register | Disclaimer

   EN    FR    IT 

 









Legend :    VFR   Marginal VFR   IFR   Intensive IFR   Very Intensive IFR
Visi :
Ceiling :
>= 8 km
>= 3000ft
5 to 8 km
1000 to 3000 ft
1500m to 5 km
500 to 1000 ft
800 to 1500m
200 to 500 ft
< 800m
< 200 ft
Symbols :   Thunderstorms  Fog  Heavy snow  Heavy precipitations  Wind > 20 kt






- Airport Elevation : 1188 ft


KCDA - Caledonia County

CURRENT METAR :
  • 061855Z AUTO 23007G15KT 10SM BKN050 OVC055 22/11 A3014 RMK AO2 T02190111

EXPIRED METARs :
  • 061835Z AUTO 24008G15KT 10SM BKN050 22/10 A3015 RMK AO2 T02190104
  • 061815Z AUTO 22008G15KT 190V250 10SM SCT050 22/11 A3014 RMK AO2 T02210108
  • 061755Z AUTO 23007G16KT 190V260 10SM SCT047 SCT050 22/11 A3014 RMK AO2 T02230108 10223 20138
  • 061735Z AUTO 22009G14KT 10SM BKN047 BKN050 21/11 A3014 RMK AO2 T02090108
  • 061715Z AUTO 22010G17KT 10SM SCT047 SCT050 22/11 A3014 RMK AO2 T02160107
  • 061655Z AUTO 23008KT 220V290 10SM SCT046 SCT050 22/12 A3014 RMK AO2 T02150116
  • 061635Z AUTO 25012G16KT 10SM SCT047 BKN050 21/10 A3014 RMK AO2 T02110104
  • 061615Z AUTO 21009G16KT 180V250 10SM SCT043 SCT050 21/10 A3015 RMK AO2 T02080104

TAF N/A
KZBW FIR / North America



MET'MAP, your aeronautical weather chart ! - Copyright ORBIFLY December 2007 - Disclaimer

ORBIFLY MET'MAP TEAM :

Programming & Development : Alexandra Zaïnal
Concept & original design : Baudouin d'Aumeries
Assistance for programming : Marc-Olivier Méhu
Technical & hardware support : Manuel Goepfert

Contact : metmap@orbifly.com




SOURCES & CREDITS :

   NOAA